createdAt,value
2023-10-16T00:03:57.853Z,101087.50
2023-10-16T00:08:01.136Z,101076.72
2023-10-16T00:12:03.645Z,101063.94
2023-10-16T00:16:06.510Z,101065.28
2023-10-16T00:20:08.935Z,101065.00
2023-10-16T00:24:12.861Z,101059.56
2023-10-16T00:28:14.358Z,101051.44
2023-10-16T00:32:16.137Z,101057.13
2023-10-16T00:36:17.824Z,101053.97
2023-10-16T00:40:21.086Z,101058.38
2023-10-16T00:44:23.330Z,101059.50
2023-10-16T00:48:25.631Z,101064.50
2023-10-16T00:52:27.394Z,101054.91
2023-10-16T00:56:33.527Z,101044.09
2023-10-16T01:00:36.573Z,101043.19
2023-10-16T01:04:38.639Z,101050.09
2023-10-16T01:08:44.916Z,101055.22
2023-10-16T01:12:47.754Z,101049.19
2023-10-16T01:16:49.937Z,101043.84
2023-10-16T01:20:51.455Z,101050.47
2023-10-16T01:24:55.590Z,101042.03
2023-10-16T01:29:00.120Z,101034.13
2023-10-16T01:33:01.594Z,101029.50
2023-10-16T01:37:03.113Z,101038.56
2023-10-16T01:41:06.092Z,101042.22
2023-10-16T01:45:09.101Z,101042.47
2023-10-16T01:49:10.829Z,101041.41
2023-10-16T01:53:12.555Z,101039.66
2023-10-16T01:57:16.865Z,101035.41
2023-10-16T02:01:19.866Z,101030.53
2023-10-16T02:05:21.474Z,101039.59
2023-10-16T02:09:23.182Z,101041.22
2023-10-16T02:13:26.304Z,101034.78
2023-10-16T02:17:27.857Z,101025.97
2023-10-16T02:21:29.676Z,101029.88
2023-10-16T02:25:33.608Z,101022.09
2023-10-16T02:29:39.218Z,101024.63
2023-10-16T02:33:41.030Z,101019.56
2023-10-16T02:37:42.790Z,101025.50
2023-10-16T02:41:44.515Z,101019.69
2023-10-16T02:45:48.194Z,101023.94
2023-10-16T02:49:50.006Z,101029.47
2023-10-16T02:53:51.718Z,101027.78
2023-10-16T02:57:53.742Z,101022.03
2023-10-16T03:01:56.961Z,101026.22
2023-10-16T03:06:00.252Z,101034.03
2023-10-16T03:10:02.959Z,101029.25
2023-10-16T03:14:04.757Z,101033.25
2023-10-16T03:18:07.927Z,101029.69
2023-10-16T03:22:09.496Z,101026.59
2023-10-16T03:26:11.034Z,101016.50
2023-10-16T03:30:14.555Z,101019.78
2023-10-16T03:34:17.423Z,101004.56
2023-10-16T03:38:18.882Z,101011.94
2023-10-16T03:42:20.469Z,101018.75
2023-10-16T03:46:23.226Z,101016.34
2023-10-16T03:50:26.927Z,101013.16
2023-10-16T03:54:30.020Z,101001.94
2023-10-16T03:58:32.225Z,101013.66
2023-10-16T04:02:33.733Z,101023.16
2023-10-16T04:06:36.664Z,101019.75
2023-10-16T04:10:38.183Z,101024.16
2023-10-16T04:14:42.831Z,101014.09
2023-10-16T04:18:44.614Z,101010.41
2023-10-16T04:22:50.375Z,101013.88
2023-10-16T04:26:52.670Z,101004.16
2023-10-16T04:30:54.440Z,101001.13
2023-10-16T04:34:56.199Z,100992.13
2023-10-16T04:38:59.272Z,100995.25
2023-10-16T04:43:00.770Z,100987.06
2023-10-16T04:47:02.588Z,100984.63
2023-10-16T04:51:29.302Z,100977.72
2023-10-16T04:55:32.911Z,100981.28
2023-10-16T04:59:36.248Z,100970.09
2023-10-16T05:03:39.987Z,100975.28
2023-10-16T05:07:42.054Z,100978.00
2023-10-16T05:11:45.127Z,100972.97
2023-10-16T05:15:46.707Z,100968.63
2023-10-16T05:19:49.663Z,100970.34
2023-10-16T05:23:51.714Z,100952.09
2023-10-16T05:27:54.588Z,100961.53
2023-10-16T05:32:00.634Z,100956.94
2023-10-16T05:36:02.132Z,100951.06
2023-10-16T05:40:04.698Z,100960.69
2023-10-16T05:44:08.726Z,100964.72
2023-10-16T05:48:10.573Z,100976.16
2023-10-16T05:52:12.703Z,100971.31
2023-10-16T05:56:14.445Z,100974.22
2023-10-16T06:00:18.301Z,100975.88
2023-10-16T06:04:20.426Z,100974.72
2023-10-16T06:08:22.558Z,100985.59
2023-10-16T06:12:25.257Z,100978.50
2023-10-16T06:16:28.398Z,100984.41
2023-10-16T06:20:30.328Z,100997.31
2023-10-16T06:24:31.878Z,101000.25
2023-10-16T06:28:34.913Z,101002.53
2023-10-16T06:32:39.079Z,100989.75
2023-10-16T06:36:42.152Z,100979.72
2023-10-16T06:40:43.658Z,100990.97
2023-10-16T06:44:46.259Z,100969.41
2023-10-16T06:48:49.804Z,100992.09
2023-10-16T06:52:53.367Z,100990.69
2023-10-16T06:56:55.244Z,100995.09
2023-10-16T07:00:57.731Z,100987.66
2023-10-16T07:05:01.141Z,100983.16
2023-10-16T07:09:03.084Z,100987.84
2023-10-16T07:13:07.880Z,100996.41
2023-10-16T07:17:09.730Z,101000.03
2023-10-16T07:21:12.955Z,100994.72
2023-10-16T07:25:14.842Z,100996.88
2023-10-16T07:29:18.195Z,100996.88
2023-10-16T07:33:20.129Z,101003.38
2023-10-16T07:37:23.196Z,101000.06
2023-10-16T07:41:25.294Z,101003.25
2023-10-16T07:45:27.060Z,101000.94
2023-10-16T07:49:28.603Z,100993.72
2023-10-16T07:53:31.676Z,100992.31
2023-10-16T07:57:35.117Z,100992.31
2023-10-16T08:01:38.844Z,100992.56
2023-10-16T08:05:43.629Z,100995.34
2023-10-16T08:09:48.102Z,100991.03
2023-10-16T08:13:51.127Z,101001.16
2023-10-16T08:17:52.676Z,100999.06
2023-10-16T08:21:54.434Z,101001.88
2023-10-16T08:25:57.452Z,101000.63
2023-10-16T08:29:58.918Z,101007.66
2023-10-16T08:34:01.176Z,101013.41
2023-10-16T08:38:04.114Z,101010.31
2023-10-16T08:42:07.102Z,101012.97
2023-10-16T08:46:10.831Z,101008.22
2023-10-16T08:50:15.555Z,101011.22
2023-10-16T08:54:17.630Z,101009.00
2023-10-16T08:58:21.377Z,101002.25
2023-10-16T09:02:26.190Z,101004.81
2023-10-16T09:06:28.387Z,101008.66
2023-10-16T09:10:33.796Z,101002.19
2023-10-16T09:14:37.750Z,101006.63
2023-10-16T09:18:39.557Z,101011.78
2023-10-16T09:22:44.147Z,101017.31
2023-10-16T09:26:45.878Z,101003.22
2023-10-16T09:31:00.856Z,100999.50
2023-10-16T09:35:09.136Z,100995.66
2023-10-16T09:39:12.990Z,100998.66
2023-10-16T09:43:14.502Z,100997.78
2023-10-16T09:47:17.833Z,100991.22
2023-10-16T09:51:20.735Z,100987.34
2023-10-16T09:55:23.856Z,100994.72
2023-10-16T09:59:27.280Z,100991.34
2023-10-16T10:03:30.341Z,100986.00
2023-10-16T10:07:33.363Z,100987.78
2023-10-16T10:11:39.352Z,100982.44
2023-10-16T10:15:45.936Z,100984.38
2023-10-16T10:19:50.825Z,100979.75
2023-10-16T10:23:54.802Z,100977.38
2023-10-16T10:28:01.837Z,100980.81
2023-10-16T10:32:11.241Z,100976.81
2023-10-16T10:36:34.842Z,100974.22
2023-10-16T10:40:36.999Z,100972.16
2023-10-16T10:44:42.836Z,100969.06
2023-10-16T10:48:44.448Z,100969.44
2023-10-16T10:52:48.409Z,100954.06
2023-10-16T10:56:50.250Z,100957.34
2023-10-16T11:00:54.593Z,100954.56
2023-10-16T11:04:59.007Z,100946.16
2023-10-16T11:09:02.507Z,100944.22
2023-10-16T11:13:05.083Z,100936.78
2023-10-16T11:17:08.190Z,100931.81
2023-10-16T11:21:10.344Z,100934.25
2023-10-16T11:25:15.514Z,100925.56
2023-10-16T11:29:19.197Z,100917.19
2023-10-16T11:33:31.990Z,100914.25
2023-10-16T11:37:34.316Z,100912.63
2023-10-16T11:41:44.839Z,100905.25
2023-10-16T11:45:47.605Z,100904.53
2023-10-16T11:50:01.031Z,100906.53
2023-10-16T11:54:03.804Z,100906.22
2023-10-16T11:58:08.452Z,100888.78
2023-10-16T12:02:10.448Z,100890.00
2023-10-16T12:06:11.966Z,100884.31
2023-10-16T12:10:14.222Z,100883.94
2023-10-16T12:14:17.735Z,100880.03
2023-10-16T12:18:19.247Z,100877.31
2023-10-16T12:22:21.063Z,100877.97
2023-10-16T12:26:23.296Z,100877.69
2023-10-16T12:30:26.175Z,100867.66
2023-10-16T12:34:28.055Z,100854.84
2023-10-16T12:38:29.705Z,100867.16
2023-10-16T12:42:32.468Z,100861.06
2023-10-16T12:46:36.029Z,100859.28
2023-10-16T12:50:37.586Z,100857.59
2023-10-16T12:54:39.186Z,100851.88
2023-10-16T12:58:41.140Z,100853.47
2023-10-16T13:02:44.432Z,100857.13
2023-10-16T13:06:47.044Z,100850.25
2023-10-16T13:10:49.515Z,100844.41
2023-10-16T13:14:52.243Z,100844.94
2023-10-16T13:18:56.223Z,100838.38
2023-10-16T13:22:58.595Z,100841.44
2023-10-16T13:27:00.957Z,100849.91
2023-10-16T13:31:02.937Z,100842.97
2023-10-16T13:35:09.759Z,100846.56
2023-10-16T13:39:11.461Z,100846.44
2023-10-16T13:43:13.391Z,100848.50
2023-10-16T13:47:14.928Z,100835.59
2023-10-16T13:51:18.258Z,100838.56
2023-10-16T13:55:21.208Z,100836.56
2023-10-16T13:59:22.780Z,100837.69
2023-10-16T14:03:24.517Z,100826.78
2023-10-16T14:07:27.678Z,100823.38
2023-10-16T14:11:29.417Z,100812.69
2023-10-16T14:15:31.316Z,100807.97
2023-10-16T14:19:33.336Z,100811.75
2023-10-16T14:23:36.688Z,100809.41
2023-10-16T14:27:38.733Z,100801.28
2023-10-16T14:31:40.364Z,100809.38
2023-10-16T14:35:42.112Z,100796.59
2023-10-16T14:39:45.200Z,100798.69
2023-10-16T14:43:47.062Z,100798.84
2023-10-16T14:47:50.663Z,100792.13
2023-10-16T14:51:53.966Z,100791.31
2023-10-16T14:55:57.275Z,100790.47
2023-10-16T15:00:00.556Z,100783.81
2023-10-16T15:04:02.130Z,100771.41
2023-10-16T15:08:04.226Z,100775.28
2023-10-16T15:12:09.357Z,100775.06
2023-10-16T15:16:11.730Z,100770.78
2023-10-16T15:20:13.618Z,100763.69
2023-10-16T15:24:15.082Z,100764.97
2023-10-16T15:28:32.067Z,100773.47
2023-10-16T15:32:40.246Z,100765.88
2023-10-16T15:36:41.847Z,100762.69
2023-10-16T15:40:44.929Z,100753.34
2023-10-16T15:44:48.931Z,100760.25
2023-10-16T15:48:51.026Z,100756.25
2023-10-16T15:52:55.154Z,100752.19
2023-10-16T15:56:57.803Z,100748.69
2023-10-16T16:01:00.918Z,100754.94
2023-10-16T16:05:02.703Z,100755.03
2023-10-16T16:09:05.111Z,100749.28
2023-10-16T16:13:07.235Z,100747.81
2023-10-16T16:17:10.680Z,100754.75
2023-10-16T16:21:12.336Z,100750.84
2023-10-16T16:25:14.432Z,100751.56
2023-10-16T16:29:16.283Z,100763.44
2023-10-16T16:33:19.363Z,100763.50
2023-10-16T16:37:20.905Z,100750.94
2023-10-16T16:41:23.448Z,100757.38
2023-10-16T16:45:25.429Z,100757.75
2023-10-16T16:49:28.541Z,100753.59
2023-10-16T16:53:30.605Z,100760.53
2023-10-16T16:57:33.192Z,100753.34
2023-10-16T17:01:34.994Z,100763.03
2023-10-16T17:05:37.989Z,100767.31
2023-10-16T17:09:39.697Z,100777.00
2023-10-16T17:13:41.541Z,100772.53
2023-10-16T17:17:43.742Z,100774.69
2023-10-16T17:21:46.653Z,100773.00
2023-10-16T17:25:48.143Z,100772.44
2023-10-16T17:29:49.864Z,100776.81
2023-10-16T17:33:55.074Z,100778.97
2023-10-16T17:37:58.294Z,100774.47
2023-10-16T17:41:59.868Z,100763.63
2023-10-16T17:46:01.491Z,100782.31
2023-10-16T17:50:03.542Z,100776.66
2023-10-16T17:54:07.309Z,100767.88
2023-10-16T17:58:09.147Z,100750.31
2023-10-16T18:02:12.722Z,100754.34
2023-10-16T18:06:14.454Z,100763.66
2023-10-16T18:10:18.955Z,100764.81
2023-10-16T18:14:24.416Z,100763.22
2023-10-16T18:18:26.053Z,100758.38
2023-10-16T18:22:27.943Z,100764.22
2023-10-16T18:26:30.874Z,100753.03
2023-10-16T18:30:32.838Z,100746.53
2023-10-16T18:34:34.545Z,100751.06
2023-10-16T18:38:36.543Z,100742.09
2023-10-16T18:42:41.397Z,100753.63
2023-10-16T18:46:44.137Z,100749.91
2023-10-16T18:50:46.486Z,100744.41
2023-10-16T18:54:47.951Z,100739.38
2023-10-16T18:58:51.057Z,100744.66
2023-10-16T19:02:52.766Z,100742.69
2023-10-16T19:06:54.647Z,100749.50
2023-10-16T19:10:59.103Z,100748.63
2023-10-16T19:15:02.951Z,100730.16
2023-10-16T19:19:04.754Z,100747.25
2023-10-16T19:23:06.505Z,100742.34
2023-10-16T19:27:08.087Z,100741.78
2023-10-16T19:31:12.320Z,100737.22
2023-10-16T19:35:14.933Z,100746.97
2023-10-16T19:39:20.889Z,100757.59
2023-10-16T19:43:22.696Z,100758.97
2023-10-16T19:47:25.792Z,100751.41
2023-10-16T19:51:27.570Z,100750.41
2023-10-16T19:55:29.314Z,100744.81
2023-10-16T19:59:31.078Z,100739.38
2023-10-16T20:03:34.950Z,100742.09
2023-10-16T20:07:36.835Z,100757.81
2023-10-16T20:11:38.428Z,100759.06
2023-10-16T20:15:41.212Z,100768.13
2023-10-16T20:19:44.367Z,100765.75
2023-10-16T20:23:47.140Z,100770.91
2023-10-16T20:27:49.353Z,100759.91
2023-10-16T20:32:00.089Z,100751.00
2023-10-16T20:36:04.373Z,100741.53
2023-10-16T20:40:07.051Z,100748.94
2023-10-16T20:44:09.993Z,100752.13
2023-10-16T20:48:13.353Z,100753.22
2023-10-16T20:52:19.141Z,100752.41
2023-10-16T20:56:21.094Z,100751.06
2023-10-16T21:00:23.676Z,100744.81
2023-10-16T21:04:26.005Z,100734.94
2023-10-16T21:08:29.060Z,100740.94
2023-10-16T21:12:31.032Z,100727.69
2023-10-16T21:16:32.746Z,100717.56
2023-10-16T21:20:34.619Z,100739.78
2023-10-16T21:24:37.699Z,100735.41
2023-10-16T21:28:39.167Z,100735.03
2023-10-16T21:32:40.921Z,100730.47
2023-10-16T21:36:42.494Z,100726.03
2023-10-16T21:40:45.560Z,100705.53
2023-10-16T21:44:47.276Z,100738.28
2023-10-16T21:48:49.340Z,100735.88
2023-10-16T21:52:50.825Z,100733.03
2023-10-16T21:56:53.977Z,100741.56
2023-10-16T22:00:56.730Z,100731.09
2023-10-16T22:04:58.229Z,100734.84
2023-10-16T22:08:59.708Z,100724.28
2023-10-16T22:13:02.970Z,100725.34
2023-10-16T22:17:04.462Z,100722.06
2023-10-16T22:21:16.323Z,100724.34
2023-10-16T22:25:20.255Z,100719.78
2023-10-16T22:29:23.088Z,100720.56
2023-10-16T22:33:24.627Z,100712.97
2023-10-16T22:37:26.568Z,100715.91
2023-10-16T22:41:29.942Z,100711.97
2023-10-16T22:45:32.988Z,100710.81
2023-10-16T22:49:34.695Z,100717.38
2023-10-16T22:53:36.501Z,100722.53
2023-10-16T22:57:37.938Z,100718.41
2023-10-16T23:01:41.000Z,100714.94
2023-10-16T23:05:42.777Z,100710.41
2023-10-16T23:09:46.674Z,100700.13
2023-10-16T23:13:48.489Z,100698.72
2023-10-16T23:17:52.043Z,100688.25
2023-10-16T23:21:53.922Z,100675.00
2023-10-16T23:25:58.976Z,100661.75
2023-10-16T23:30:00.749Z,100652.31
2023-10-16T23:34:04.002Z,100654.03
2023-10-16T23:38:06.826Z,100659.38
2023-10-16T23:42:08.590Z,100663.41
2023-10-16T23:46:10.380Z,100676.88
2023-10-16T23:50:15.740Z,100685.72
2023-10-16T23:54:18.086Z,100687.75
2023-10-16T23:58:19.826Z,100686.31
